createdAt,value
2018-07-07T00:00:33.988Z,99.90
2018-07-07T00:03:01.607Z,99.90
2018-07-07T00:05:29.272Z,99.90
2018-07-07T00:07:56.876Z,99.90
2018-07-07T00:10:24.590Z,99.90
2018-07-07T00:12:52.191Z,99.90
2018-07-07T00:15:20.989Z,99.90
2018-07-07T00:17:49.149Z,99.90
2018-07-07T00:20:17.261Z,99.90
2018-07-07T00:22:45.324Z,99.90
2018-07-07T00:25:13.632Z,99.90
2018-07-07T00:27:41.259Z,99.90
2018-07-07T00:30:08.904Z,99.90
2018-07-07T00:32:36.524Z,99.90
2018-07-07T00:35:04.161Z,99.90
2018-07-07T00:37:31.764Z,99.90
2018-07-07T00:39:59.401Z,99.90
2018-07-07T00:42:27.008Z,99.90
2018-07-07T00:44:54.630Z,99.90
2018-07-07T00:47:22.237Z,99.90
2018-07-07T00:49:49.864Z,99.90
2018-07-07T00:52:17.472Z,99.90
2018-07-07T00:54:45.092Z,99.90
2018-07-07T00:57:12.688Z,99.90
2018-07-07T00:59:40.313Z,99.90
2018-07-07T01:02:13.471Z,99.90
2018-07-07T01:04:41.116Z,99.90
2018-07-07T01:07:08.724Z,99.90
2018-07-07T01:09:36.341Z,99.90
2018-07-07T01:14:31.340Z,99.90
2018-07-07T01:16:58.947Z,99.90
2018-07-07T01:19:26.568Z,99.90
2018-07-07T01:21:54.312Z,99.90
2018-07-07T01:24:21.936Z,99.90
2018-07-07T01:26:49.540Z,99.90
2018-07-07T01:29:17.248Z,99.90
2018-07-07T01:31:44.848Z,99.90
2018-07-07T01:34:12.493Z,99.90
2018-07-07T01:36:40.096Z,99.90
2018-07-07T01:39:07.737Z,99.90
2018-07-07T01:41:35.364Z,99.90
2018-07-07T01:44:02.964Z,99.90
2018-07-07T01:46:30.584Z,99.90
2018-07-07T01:48:58.190Z,99.90
2018-07-07T01:51:25.807Z,99.90
2018-07-07T01:53:53.408Z,99.90
2018-07-07T01:56:21.028Z,99.90
2018-07-07T01:58:48.633Z,99.90
2018-07-07T02:01:16.252Z,99.90
2018-07-07T02:03:43.860Z,99.90
2018-07-07T02:06:11.521Z,99.90
2018-07-07T02:08:39.124Z,99.90
2018-07-07T02:11:06.760Z,99.90
2018-07-07T02:13:34.360Z,99.90
2018-07-07T02:16:01.993Z,99.90
2018-07-07T02:18:29.599Z,99.90
2018-07-07T02:20:57.216Z,99.90
2018-07-07T02:23:24.816Z,99.90
2018-07-07T02:25:52.436Z,99.90
2018-07-07T02:28:20.036Z,99.90
2018-07-07T02:30:47.660Z,99.90
2018-07-07T02:33:15.259Z,99.90
2018-07-07T02:35:42.877Z,99.90
2018-07-07T02:38:10.489Z,99.90
2018-07-07T02:40:38.128Z,99.90
2018-07-07T02:43:05.732Z,99.90
2018-07-07T02:45:33.365Z,99.90
2018-07-07T02:48:00.967Z,99.90
2018-07-07T02:50:28.623Z,99.90
2018-07-07T02:52:56.229Z,99.90
2018-07-07T02:55:23.857Z,99.90
2018-07-07T02:57:51.460Z,99.90
2018-07-07T03:00:19.080Z,99.90
2018-07-07T03:02:46.686Z,99.90
2018-07-07T03:05:14.332Z,99.90
2018-07-07T03:07:41.936Z,99.90
2018-07-07T03:10:09.560Z,99.90
2018-07-07T03:12:37.161Z,99.90
2018-07-07T03:15:04.790Z,99.90
2018-07-07T03:17:32.488Z,99.90
2018-07-07T03:20:00.117Z,99.90
2018-07-07T03:22:27.708Z,99.90
2018-07-07T03:24:55.313Z,99.90
2018-07-07T03:27:22.932Z,99.90
2018-07-07T03:29:50.616Z,99.90
2018-07-07T03:32:18.236Z,99.90
2018-07-07T03:34:45.832Z,99.90
2018-07-07T03:37:13.456Z,99.90
2018-07-07T03:39:41.059Z,99.90
2018-07-07T03:42:08.733Z,99.90
2018-07-07T03:44:36.313Z,99.90
2018-07-07T03:47:03.946Z,99.90
2018-07-07T03:49:31.551Z,99.90
2018-07-07T03:51:59.188Z,99.90
2018-07-07T03:56:54.246Z,99.90
2018-07-07T03:59:21.844Z,99.90
2018-07-07T04:01:49.484Z,99.90
2018-07-07T04:04:17.092Z,99.90
2018-07-07T04:06:44.732Z,99.90
2018-07-07T04:09:12.332Z,99.90
2018-07-07T04:11:39.948Z,99.90
2018-07-07T04:14:07.547Z,99.90
2018-07-07T04:16:35.168Z,99.90
2018-07-07T04:19:02.779Z,99.90
2018-07-07T04:21:30.403Z,99.90
2018-07-07T04:23:58.008Z,99.90
2018-07-07T04:26:25.648Z,99.90
2018-07-07T04:28:53.279Z,99.90
2018-07-07T04:31:20.908Z,99.90
2018-07-07T04:33:48.512Z,99.90
2018-07-07T04:38:43.492Z,99.90
2018-07-07T04:41:11.109Z,99.90
2018-07-07T04:43:38.717Z,99.90
2018-07-07T04:46:06.349Z,99.90
2018-07-07T04:48:33.963Z,99.90
2018-07-07T04:51:01.576Z,99.90
2018-07-07T04:53:29.196Z,99.90
2018-07-07T04:55:56.816Z,99.90
2018-07-07T04:58:24.416Z,99.90
2018-07-07T05:00:52.045Z,99.90
2018-07-07T05:03:19.643Z,99.90
2018-07-07T05:05:47.315Z,99.90
2018-07-07T05:08:14.922Z,99.90
2018-07-07T05:10:42.524Z,99.90
2018-07-07T05:13:10.152Z,99.90
2018-07-07T05:15:37.859Z,99.90
2018-07-07T05:18:05.473Z,99.90
2018-07-07T05:20:33.345Z,99.90
2018-07-07T05:23:00.964Z,99.90
2018-07-07T05:25:28.578Z,99.90
2018-07-07T05:27:56.192Z,99.90
2018-07-07T05:30:23.798Z,99.90
2018-07-07T05:32:51.432Z,99.90
2018-07-07T05:35:19.036Z,99.90
2018-07-07T05:37:46.660Z,99.90
2018-07-07T05:40:14.265Z,99.90
2018-07-07T05:42:41.892Z,99.90
2018-07-07T05:45:09.509Z,99.90
2018-07-07T05:47:37.138Z,99.90
2018-07-07T05:50:04.791Z,99.90
2018-07-07T05:52:32.520Z,99.90
2018-07-07T05:55:00.153Z,99.90
2018-07-07T05:57:27.837Z,99.90
2018-07-07T05:59:55.408Z,99.90
2018-07-07T06:02:23.032Z,99.90
2018-07-07T06:04:50.652Z,99.90
2018-07-07T06:07:18.280Z,99.90
2018-07-07T06:09:45.900Z,99.90
2018-07-07T06:12:13.526Z,99.90
2018-07-07T06:14:41.136Z,99.90
2018-07-07T06:17:08.756Z,99.90
2018-07-07T06:19:36.363Z,99.90
2018-07-07T06:22:04.009Z,99.90
2018-07-07T06:24:31.609Z,99.90
2018-07-07T06:26:59.236Z,99.90
2018-07-07T06:29:26.840Z,99.90
2018-07-07T06:31:54.467Z,99.90
2018-07-07T06:34:22.072Z,99.90
2018-07-07T06:36:49.723Z,99.90
2018-07-07T06:39:17.329Z,99.90
2018-07-07T06:41:44.969Z,99.90
2018-07-07T06:44:12.572Z,99.90
2018-07-07T06:46:40.192Z,99.90
2018-07-07T06:49:07.813Z,99.90
2018-07-07T06:51:35.448Z,99.90
2018-07-07T06:54:03.148Z,99.90
2018-07-07T06:56:30.705Z,99.90
2018-07-07T06:58:58.360Z,99.90
2018-07-07T07:01:25.964Z,99.90
2018-07-07T07:03:53.590Z,99.90
2018-07-07T07:06:21.216Z,99.90
2018-07-07T07:08:48.832Z,99.90
2018-07-07T07:11:16.431Z,99.90
2018-07-07T07:16:11.416Z,99.90
2018-07-07T07:18:39.033Z,99.90
2018-07-07T07:21:06.732Z,99.90
2018-07-07T07:23:34.352Z,99.90
2018-07-07T07:26:01.985Z,99.90
2018-07-07T07:28:29.599Z,99.90
2018-07-07T07:30:57.204Z,99.90
2018-07-07T07:33:24.940Z,99.90
2018-07-07T07:35:52.551Z,99.90
2018-07-07T07:38:20.174Z,99.90
2018-07-07T07:40:47.780Z,99.90
2018-07-07T07:43:15.474Z,99.90
2018-07-07T07:45:43.073Z,99.90
2018-07-07T07:48:10.888Z,99.90
2018-07-07T07:50:38.491Z,99.90
2018-07-07T07:53:06.327Z,99.90
2018-07-07T07:55:33.936Z,99.90
2018-07-07T07:58:01.560Z,99.90
2018-07-07T08:00:29.164Z,99.90
2018-07-07T08:02:56.784Z,99.90
2018-07-07T08:05:24.408Z,99.90
2018-07-07T08:07:52.072Z,99.90
2018-07-07T08:10:19.671Z,99.90
2018-07-07T08:12:47.296Z,99.90
2018-07-07T08:15:14.896Z,99.90
2018-07-07T08:17:42.512Z,99.90
2018-07-07T08:20:10.125Z,99.90
2018-07-07T08:22:37.759Z,99.90
2018-07-07T08:25:05.397Z,99.90
2018-07-07T08:27:33.024Z,99.90
2018-07-07T08:30:00.620Z,99.20
2018-07-07T08:32:28.228Z,99.10
2018-07-07T08:34:55.852Z,95.80
2018-07-07T08:37:23.452Z,95.10
2018-07-07T08:39:51.099Z,96.10
2018-07-07T08:42:18.709Z,96.00
2018-07-07T08:44:46.344Z,96.40
2018-07-07T08:47:13.948Z,94.40
2018-07-07T08:49:41.604Z,91.70
2018-07-07T08:52:09.212Z,91.80
2018-07-07T08:54:36.836Z,91.90
2018-07-07T08:57:04.720Z,93.20
2018-07-07T08:59:32.348Z,91.80
2018-07-07T09:01:59.947Z,93.60
2018-07-07T09:04:27.596Z,92.60
2018-07-07T09:06:55.204Z,91.70
2018-07-07T09:09:22.862Z,91.20
2018-07-07T09:11:50.468Z,91.90
2018-07-07T09:14:18.122Z,88.50
2018-07-07T09:16:45.729Z,89.50
2018-07-07T09:19:13.356Z,89.40
2018-07-07T09:21:40.952Z,87.90
2018-07-07T09:24:08.633Z,90.30
2018-07-07T09:26:36.240Z,89.20
2018-07-07T09:29:03.863Z,87.40
2018-07-07T09:31:31.464Z,88.90
2018-07-07T09:33:59.094Z,87.40
2018-07-07T09:36:26.788Z,90.20
2018-07-07T09:38:54.500Z,81.50
2018-07-07T09:41:22.055Z,79.50
2018-07-07T09:43:49.677Z,83.60
2018-07-07T09:46:17.287Z,76.90
2018-07-07T09:48:44.908Z,76.30
2018-07-07T09:51:12.520Z,77.20
2018-07-07T09:53:40.168Z,73.70
2018-07-07T09:56:07.784Z,74.20
2018-07-07T09:58:35.405Z,75.20
2018-07-07T10:01:03.058Z,71.60
2018-07-07T10:03:30.679Z,77.00
2018-07-07T10:05:58.307Z,71.20
2018-07-07T10:08:25.932Z,71.20
2018-07-07T10:10:53.535Z,73.20
2018-07-07T10:13:21.194Z,73.30
2018-07-07T10:15:48.817Z,72.10
2018-07-07T10:18:16.428Z,77.10
2018-07-07T10:20:44.083Z,75.60
2018-07-07T10:23:11.695Z,74.60
2018-07-07T10:25:39.316Z,75.20
2018-07-07T10:28:06.923Z,75.20
2018-07-07T10:33:01.911Z,70.40
2018-07-07T10:35:29.536Z,69.20
2018-07-07T10:37:57.136Z,68.70
2018-07-07T10:40:24.764Z,67.70
2018-07-07T10:42:52.363Z,66.30
2018-07-07T10:45:20.004Z,65.20
2018-07-07T10:47:47.612Z,64.50
2018-07-07T10:50:15.429Z,68.50
2018-07-07T10:52:43.035Z,70.40
2018-07-07T10:55:10.652Z,66.20
2018-07-07T10:57:38.252Z,66.30
2018-07-07T11:00:06.204Z,70.80
2018-07-07T11:02:33.862Z,65.40
2018-07-07T11:05:01.478Z,68.20
2018-07-07T11:07:29.076Z,70.00
2018-07-07T11:09:56.708Z,68.90
2018-07-07T11:12:24.311Z,67.40
2018-07-07T11:14:51.927Z,64.30
2018-07-07T11:17:19.533Z,64.70
2018-07-07T11:19:47.188Z,65.50
2018-07-07T11:22:14.792Z,65.00
2018-07-07T11:24:42.421Z,66.90
2018-07-07T11:27:10.024Z,65.90
2018-07-07T11:29:37.649Z,65.90
2018-07-07T11:32:05.272Z,64.10
2018-07-07T11:34:32.932Z,65.70
2018-07-07T11:37:00.580Z,62.90
2018-07-07T11:39:28.184Z,61.30
2018-07-07T11:41:55.808Z,57.70
2018-07-07T11:44:23.432Z,55.60
2018-07-07T11:46:51.053Z,56.00
2018-07-07T11:49:18.681Z,57.20
2018-07-07T11:51:46.327Z,58.60
2018-07-07T11:54:13.943Z,58.30
2018-07-07T11:56:41.542Z,58.60
2018-07-07T11:59:09.147Z,56.80
2018-07-07T12:01:36.772Z,57.50
2018-07-07T12:04:04.372Z,59.40
2018-07-07T12:06:32.084Z,59.80
2018-07-07T12:08:59.692Z,61.00
2018-07-07T12:11:27.333Z,58.50
2018-07-07T12:13:54.960Z,60.70
2018-07-07T12:16:22.579Z,57.00
2018-07-07T12:18:50.183Z,58.10
2018-07-07T12:21:17.812Z,58.80
2018-07-07T12:23:45.411Z,58.60
2018-07-07T12:26:13.040Z,60.00
2018-07-07T12:28:40.640Z,63.10
2018-07-07T12:31:08.283Z,60.70
2018-07-07T12:33:35.889Z,59.10
2018-07-07T12:36:03.518Z,59.20
2018-07-07T12:38:31.116Z,62.20
2018-07-07T12:40:58.736Z,58.50
2018-07-07T12:43:26.351Z,59.50
2018-07-07T12:45:54.025Z,58.70
2018-07-07T12:48:21.604Z,59.40
2018-07-07T12:50:49.232Z,61.00
2018-07-07T12:53:16.836Z,59.00
2018-07-07T12:55:44.456Z,57.30
2018-07-07T12:58:12.056Z,59.20
2018-07-07T13:00:39.684Z,57.20
2018-07-07T13:03:07.288Z,60.30
2018-07-07T13:05:34.931Z,56.60
2018-07-07T13:10:29.988Z,57.10
2018-07-07T13:12:57.613Z,57.90
2018-07-07T13:15:25.240Z,57.00
2018-07-07T13:17:52.848Z,56.30
2018-07-07T13:20:20.472Z,56.10
2018-07-07T13:22:48.083Z,56.50
2018-07-07T13:25:15.708Z,54.60
2018-07-07T13:27:43.312Z,56.20
2018-07-07T13:30:10.941Z,55.10
2018-07-07T13:32:38.545Z,55.00
2018-07-07T13:35:06.173Z,57.00
2018-07-07T13:37:33.876Z,56.10
2018-07-07T13:40:01.504Z,57.60
2018-07-07T13:42:29.113Z,55.20
2018-07-07T13:44:56.740Z,54.10
2018-07-07T13:47:24.373Z,54.00
2018-07-07T13:49:51.974Z,54.00
2018-07-07T13:52:19.599Z,54.10
2018-07-07T13:54:47.212Z,54.70
2018-07-07T13:57:14.885Z,54.10
2018-07-07T13:59:42.489Z,56.00
2018-07-07T14:02:10.108Z,54.80
2018-07-07T14:04:37.733Z,54.10
2018-07-07T14:07:05.595Z,57.60
2018-07-07T14:09:33.271Z,57.00
2018-07-07T14:12:00.844Z,55.50
2018-07-07T14:14:28.447Z,55.10
2018-07-07T14:16:56.110Z,57.40
2018-07-07T14:19:23.715Z,54.30
2018-07-07T14:21:51.335Z,53.90
2018-07-07T14:24:18.943Z,53.40
2018-07-07T14:26:46.577Z,53.10
2018-07-07T14:29:14.188Z,53.70
2018-07-07T14:31:41.870Z,54.50
2018-07-07T14:34:09.444Z,54.90
2018-07-07T14:36:37.072Z,53.40
2018-07-07T14:39:05.535Z,53.60
2018-07-07T14:41:33.815Z,54.70
2018-07-07T14:44:02.657Z,54.50
2018-07-07T14:46:30.869Z,51.90
2018-07-07T14:48:58.472Z,52.00
2018-07-07T14:51:26.101Z,53.10
2018-07-07T14:53:53.952Z,52.50
2018-07-07T14:56:22.179Z,53.40
2018-07-07T14:58:50.096Z,52.70
2018-07-07T15:01:17.715Z,53.60
2018-07-07T15:03:45.319Z,51.40
2018-07-07T15:06:12.968Z,53.30
2018-07-07T15:08:40.600Z,52.30
2018-07-07T15:11:08.520Z,55.10
2018-07-07T15:13:36.119Z,51.70
2018-07-07T15:16:03.869Z,51.80
2018-07-07T15:18:32.160Z,51.80
2018-07-07T15:20:59.796Z,51.40
2018-07-07T15:23:27.481Z,53.20
2018-07-07T15:28:22.492Z,52.30
2018-07-07T15:30:50.106Z,53.60
2018-07-07T15:33:17.740Z,50.10
2018-07-07T15:35:45.389Z,52.60
2018-07-07T15:38:13.057Z,52.60
2018-07-07T15:40:40.659Z,51.40
2018-07-07T15:43:08.281Z,51.20
2018-07-07T15:45:35.883Z,49.70
2018-07-07T15:48:03.509Z,50.80
2018-07-07T15:50:31.129Z,51.60
2018-07-07T15:52:58.788Z,51.70
2018-07-07T15:55:26.396Z,51.00
2018-07-07T15:57:54.017Z,51.20
2018-07-07T16:00:21.629Z,51.30
2018-07-07T16:02:49.267Z,52.80
2018-07-07T16:05:16.932Z,50.60
2018-07-07T16:07:44.560Z,51.00
2018-07-07T16:10:12.297Z,51.50
2018-07-07T16:12:39.928Z,51.40
2018-07-07T16:15:07.569Z,52.10
2018-07-07T16:17:35.176Z,52.50
2018-07-07T16:20:02.783Z,50.40
2018-07-07T16:22:30.800Z,49.90
2018-07-07T16:24:58.410Z,49.30
2018-07-07T16:27:26.040Z,50.40
2018-07-07T16:29:53.644Z,53.30
2018-07-07T16:32:21.272Z,50.90
2018-07-07T16:34:49.183Z,51.20
2018-07-07T16:37:16.804Z,51.10
2018-07-07T16:42:11.972Z,51.70
2018-07-07T16:44:39.849Z,50.60
2018-07-07T16:47:07.520Z,52.30
2018-07-07T16:49:35.145Z,52.80
2018-07-07T16:52:03.211Z,53.20
2018-07-07T16:54:30.903Z,51.70
2018-07-07T16:56:58.536Z,51.30
2018-07-07T16:59:26.193Z,52.50
2018-07-07T17:01:54.653Z,54.20
2018-07-07T17:04:22.684Z,53.80
2018-07-07T17:06:50.788Z,55.90
2018-07-07T17:09:18.412Z,54.50
2018-07-07T17:11:46.256Z,55.10
2018-07-07T17:14:13.878Z,56.70
2018-07-07T17:16:42.627Z,56.50
2018-07-07T17:19:10.460Z,57.40
2018-07-07T17:21:38.144Z,58.50
2018-07-07T17:24:05.789Z,57.60
2018-07-07T17:26:33.430Z,57.70
2018-07-07T17:29:01.076Z,58.80
2018-07-07T17:31:28.678Z,59.30
2018-07-07T17:33:56.316Z,58.90
2018-07-07T17:36:23.928Z,59.60
2018-07-07T17:38:51.547Z,59.70
2018-07-07T17:41:19.212Z,61.20
2018-07-07T17:43:46.856Z,60.20
2018-07-07T17:46:14.478Z,61.80
2018-07-07T17:48:42.095Z,60.70
2018-07-07T17:51:09.717Z,60.90
2018-07-07T17:53:37.359Z,60.70
2018-07-07T17:56:04.977Z,60.30
2018-07-07T17:58:32.633Z,60.90
2018-07-07T18:01:00.287Z,60.80
2018-07-07T18:03:27.929Z,61.20
2018-07-07T18:05:55.560Z,62.40
2018-07-07T18:08:23.185Z,63.00
2018-07-07T18:10:51.156Z,62.50
2018-07-07T18:13:18.776Z,60.40
2018-07-07T18:15:46.380Z,61.30
2018-07-07T18:18:14.005Z,61.80
2018-07-07T18:20:42.131Z,61.20
2018-07-07T18:23:10.091Z,62.50
2018-07-07T18:25:38.804Z,63.70
2018-07-07T18:28:06.425Z,63.80
2018-07-07T18:30:34.053Z,65.00
2018-07-07T18:33:01.684Z,63.30
2018-07-07T18:35:29.436Z,63.30
2018-07-07T18:37:57.107Z,62.10
2018-07-07T18:40:24.713Z,62.90
2018-07-07T18:42:52.340Z,63.70
2018-07-07T18:45:19.943Z,64.20
2018-07-07T18:47:47.580Z,64.30
2018-07-07T18:50:15.235Z,63.20
2018-07-07T18:52:42.909Z,63.90
2018-07-07T18:55:10.713Z,65.00
2018-07-07T18:57:38.327Z,65.80
2018-07-07T19:00:05.952Z,64.20
2018-07-07T19:02:33.588Z,66.50
2018-07-07T19:05:01.213Z,66.00
2018-07-07T19:07:28.903Z,65.70
2018-07-07T19:09:57.351Z,65.90
2018-07-07T19:12:24.976Z,65.70
2018-07-07T19:14:56.341Z,67.00
2018-07-07T19:17:23.961Z,67.60
2018-07-07T19:19:51.608Z,67.90
2018-07-07T19:22:24.884Z,67.30
2018-07-07T19:24:58.072Z,68.80
2018-07-07T19:27:25.684Z,68.40
2018-07-07T19:29:53.305Z,68.80
2018-07-07T19:32:26.326Z,68.90
2018-07-07T19:34:59.789Z,70.20
2018-07-07T19:37:27.440Z,69.90
2018-07-07T19:39:55.172Z,70.20
2018-07-07T19:42:22.888Z,69.90
2018-07-07T19:44:50.516Z,71.20
2018-07-07T19:47:19.124Z,70.50
2018-07-07T19:49:46.791Z,71.20
2018-07-07T19:52:14.917Z,72.10
2018-07-07T19:54:42.555Z,72.30
2018-07-07T19:57:10.168Z,73.10
2018-07-07T19:59:38.937Z,72.10
2018-07-07T20:02:07.132Z,72.30
2018-07-07T20:04:34.896Z,73.70
2018-07-07T20:07:02.548Z,72.40
2018-07-07T20:09:30.179Z,73.70
2018-07-07T20:11:57.888Z,73.00
2018-07-07T20:14:26.539Z,73.50
2018-07-07T20:16:58.076Z,73.80
2018-07-07T20:19:27.083Z,74.20
2018-07-07T20:22:03.330Z,74.10
2018-07-07T20:24:39.660Z,75.60
2018-07-07T20:27:13.265Z,76.30
2018-07-07T20:29:41.411Z,77.00
2018-07-07T20:32:14.444Z,76.70
2018-07-07T20:34:42.063Z,77.00
2018-07-07T20:37:09.690Z,77.20
2018-07-07T20:39:37.328Z,78.50
2018-07-07T20:42:05.157Z,83.30
2018-07-07T20:44:32.820Z,84.30
2018-07-07T20:47:00.420Z,85.80
2018-07-07T20:49:28.093Z,87.60
2018-07-07T20:51:55.696Z,89.40
2018-07-07T20:54:23.320Z,90.20
2018-07-07T20:56:50.928Z,91.10
2018-07-07T20:59:18.556Z,91.20
2018-07-07T21:01:46.204Z,92.20
2018-07-07T21:04:13.814Z,92.90
2018-07-07T21:06:42.152Z,93.90
2018-07-07T21:09:09.868Z,94.90
2018-07-07T21:11:37.519Z,95.50
2018-07-07T21:14:05.155Z,96.20
2018-07-07T21:16:32.761Z,97.10
2018-07-07T21:19:00.392Z,97.60
2018-07-07T21:21:27.992Z,98.70
2018-07-07T21:23:55.616Z,98.90
2018-07-07T21:26:23.224Z,99.40
2018-07-07T21:28:50.861Z,99.40
2018-07-07T21:31:18.477Z,99.90
2018-07-07T21:33:46.098Z,99.90
2018-07-07T21:36:13.713Z,99.90
2018-07-07T21:38:41.332Z,99.90
2018-07-07T21:41:08.959Z,99.90
2018-07-07T21:43:36.567Z,99.90
2018-07-07T21:46:04.213Z,99.90
2018-07-07T21:48:31.821Z,99.90
2018-07-07T21:50:59.440Z,99.90
2018-07-07T21:53:27.042Z,99.90
2018-07-07T21:55:54.659Z,99.90
2018-07-07T21:58:26.856Z,99.90
2018-07-07T22:01:05.867Z,99.90
2018-07-07T22:06:07.113Z,99.90
2018-07-07T22:08:35.144Z,99.90
2018-07-07T22:11:02.797Z,99.90
2018-07-07T22:13:30.445Z,99.90
2018-07-07T22:15:58.088Z,99.90
2018-07-07T22:18:25.970Z,99.90
2018-07-07T22:20:59.260Z,99.90
2018-07-07T22:23:26.853Z,99.90
2018-07-07T22:25:54.479Z,99.90
2018-07-07T22:28:22.085Z,99.90
2018-07-07T22:30:49.710Z,99.90
2018-07-07T22:33:22.824Z,99.90
2018-07-07T22:35:56.026Z,99.90
2018-07-07T22:38:29.026Z,99.90
2018-07-07T22:40:56.648Z,99.90
2018-07-07T22:43:24.261Z,99.90
2018-07-07T22:45:51.888Z,99.90
2018-07-07T22:48:19.500Z,99.90
2018-07-07T22:50:47.260Z,99.90
2018-07-07T22:53:14.883Z,99.90
2018-07-07T22:58:09.888Z,99.90
2018-07-07T23:00:37.512Z,99.90
2018-07-07T23:03:05.129Z,99.90
2018-07-07T23:05:33.000Z,99.90
2018-07-07T23:08:00.969Z,99.90
2018-07-07T23:10:29.073Z,99.90
2018-07-07T23:12:56.696Z,99.90
2018-07-07T23:15:24.369Z,99.90
2018-07-07T23:17:51.985Z,99.90
2018-07-07T23:20:19.604Z,99.90
2018-07-07T23:22:49.579Z,99.90
2018-07-07T23:25:17.208Z,99.90
2018-07-07T23:27:44.925Z,99.90
2018-07-07T23:30:12.549Z,99.90
2018-07-07T23:32:40.172Z,99.90
2018-07-07T23:35:07.787Z,99.90
2018-07-07T23:37:35.397Z,99.90
2018-07-07T23:40:03.119Z,99.90
2018-07-07T23:42:30.720Z,99.90
2018-07-07T23:44:58.560Z,99.90
2018-07-07T23:47:26.164Z,99.90
2018-07-07T23:49:53.809Z,99.90
2018-07-07T23:52:21.780Z,99.90
2018-07-07T23:54:49.416Z,99.90
2018-07-07T23:57:17.036Z,99.90
2018-07-07T23:59:44.656Z,99.90
